Time;durP1;ratioP1;P1;durP2;ratioP2;P2;SDS_P1;SDS_P2;PMS_P1;PMS_P2;Temp;Humidity;BMP_temperature;BMP_pressure;BME280_temperature;BME280_humidity;BME280_pressure;Samples;Min_cycle;Max_cycle;Signal;HPM_P1;HPM_P2
2024/01/16 00:00:03;;;;;;;18.95;6.72;;;;;;;-1.18;100.00;100841.38;5080477;28;20036;-75
2024/01/16 00:02:28;;;;;;;19.95;7.30;;;;;;;-1.20;100.00;100842.97;5083837;28;20140;-75
2024/01/16 00:04:53;;;;;;;20.27;7.35;;;;;;;-1.22;100.00;100847.19;5082218;28;20115;-79
2024/01/16 00:07:19;;;;;;;20.70;7.28;;;;;;;-1.23;100.00;100842.81;5083129;28;20384;-79
2024/01/16 00:09:45;;;;;;;21.13;7.38;;;;;;;-1.21;100.00;100840.28;5083505;28;20024;-78
2024/01/16 00:12:10;;;;;;;21.38;7.63;;;;;;;-1.20;100.00;100849.88;5081829;28;20025;-77
2024/01/16 00:14:36;;;;;;;20.58;8.07;;;;;;;-1.20;100.00;100849.88;5066862;28;20032;-78
2024/01/16 00:17:03;;;;;;;21.42;8.35;;;;;;;-1.17;100.00;100853.50;5077478;28;20063;-83
2024/01/16 00:19:28;;;;;;;22.25;8.93;;;;;;;-1.13;100.00;100855.44;5083962;28;20036;-84
2024/01/16 00:21:54;;;;;;;20.85;8.85;;;;;;;-1.10;100.00;100855.59;5082102;28;20032;-86
2024/01/16 00:24:19;;;;;;;23.00;8.80;;;;;;;-1.06;100.00;100857.53;5083135;28;20129;-86
2024/01/16 00:26:46;;;;;;;21.73;9.00;;;;;;;-1.03;100.00;100858.50;5083281;28;20544;-87
2024/01/16 00:29:12;;;;;;;22.67;9.32;;;;;;;-0.99;100.00;100855.25;5081755;28;20480;-87
2024/01/16 00:31:38;;;;;;;22.55;9.52;;;;;;;-1.00;100.00;100850.91;5084673;28;20043;-80
2024/01/16 00:34:04;;;;;;;22.92;9.63;;;;;;;-0.97;100.00;100856.25;5082290;28;20085;-79
2024/01/16 00:36:30;;;;;;;23.45;9.25;;;;;;;-0.95;100.00;100858.09;5088682;28;20485;-86
2024/01/16 00:38:56;;;;;;;21.38;8.80;;;;;;;-0.96;100.00;100868.38;5085007;28;20379;-86
2024/01/16 00:41:21;;;;;;;22.75;8.70;;;;;;;-0.96;100.00;100864.09;5052116;28;20036;-77
2024/01/16 00:43:46;;;;;;;21.38;7.75;;;;;;;-0.88;100.00;100877.47;5084197;28;20040;-77
2024/01/16 00:46:12;;;;;;;22.23;7.45;;;;;;;-0.98;100.00;100873.50;5087711;28;20457;-77
2024/01/16 00:48:37;;;;;;;22.52;8.40;;;;;;;-1.09;100.00;100865.19;5085597;28;20029;-75
2024/01/16 00:51:03;;;;;;;21.73;7.90;;;;;;;-1.09;100.00;100867.78;5088040;28;20062;-75
2024/01/16 00:53:28;;;;;;;22.30;8.45;;;;;;;-1.06;100.00;100865.31;5084890;28;20475;-75
2024/01/16 00:55:54;;;;;;;21.67;8.18;;;;;;;-1.02;100.00;100855.09;5085695;28;20029;-75
2024/01/16 00:58:22;;;;;;;21.10;7.63;;;;;;;-0.98;100.00;100857.94;5086135;28;20031;-76
2024/01/16 01:00:48;;;;;;;21.25;7.57;;;;;;;-0.95;100.00;100873.66;5085664;28;20028;-76
2024/01/16 01:03:14;;;;;;;22.73;7.50;;;;;;;-0.94;100.00;100861.59;5085561;28;20059;-76
2024/01/16 01:05:39;;;;;;;19.50;7.20;;;;;;;-0.91;100.00;100859.16;5084501;28;20033;-75
2024/01/16 01:08:05;;;;;;;21.20;6.90;;;;;;;-0.93;100.00;100863.38;5087708;28;20024;-75
2024/01/16 01:10:30;;;;;;;22.52;7.07;;;;;;;-0.94;100.00;100870.25;5084659;28;20033;-75
2024/01/16 01:12:55;;;;;;;21.67;7.13;;;;;;;-0.94;100.00;100867.66;5086978;28;20100;-75
2024/01/16 01:15:21;;;;;;;20.73;7.72;;;;;;;-0.94;100.00;100864.19;5087552;28;20035;-75
2024/01/16 01:17:49;;;;;;;22.30;7.10;;;;;;;-0.86;100.00;100874.94;5085363;28;20070;-76
2024/01/16 01:20:15;;;;;;;22.05;6.97;;;;;;;-0.96;100.00;100868.38;5084968;28;20107;-76
2024/01/16 01:22:40;;;;;;;22.65;6.85;;;;;;;-0.94;100.00;100866.78;5087012;28;20120;-75
2024/01/16 01:25:06;;;;;;;20.05;6.60;;;;;;;-0.91;100.00;100856.56;5082812;28;20079;-76
2024/01/16 01:27:32;;;;;;;20.58;6.70;;;;;;;-0.93;100.00;100865.97;5087141;28;20036;-76
2024/01/16 01:29:58;;;;;;;21.38;6.63;;;;;;;-0.91;100.00;100859.16;5084558;28;20120;-75
2024/01/16 01:32:23;;;;;;;20.65;6.20;;;;;;;-0.93;100.00;100860.78;5086161;28;20031;-75
2024/01/16 01:34:49;;;;;;;20.88;6.00;;;;;;;-0.92;100.00;100855.66;5085574;28;20493;-76
2024/01/16 01:37:14;;;;;;;21.65;5.90;;;;;;;-0.90;100.00;100864.41;5084670;28;20029;-75
2024/01/16 01:39:39;;;;;;;19.02;5.60;;;;;;;-0.91;100.00;100852.25;5086820;28;20031;-75
2024/01/16 01:42:05;;;;;;;18.60;5.57;;;;;;;-0.89;100.00;100866.22;5083506;28;20068;-75
2024/01/16 01:44:30;;;;;;;19.75;5.45;;;;;;;-0.85;100.00;100871.56;5086409;28;20467;-76
2024/01/16 01:46:56;;;;;;;19.67;5.85;;;;;;;-0.86;100.00;100862.84;5084411;28;20024;-76
2024/01/16 01:49:23;;;;;;;19.10;5.97;;;;;;;-0.88;100.00;100873.16;5085457;28;20139;-76
2024/01/16 01:51:49;;;;;;;19.75;6.47;;;;;;;-0.87;100.00;100874.06;5084393;28;20478;-76
2024/01/16 01:54:16;;;;;;;19.70;6.10;;;;;;;-0.86;100.00;100870.63;5084221;28;20112;-76
2024/01/16 01:56:47;;;;;;;20.25;6.38;;;;;;;-0.88;100.00;100872.28;5086298;28;20024;-76
2024/01/16 01:59:14;;;;;;;21.35;6.50;;;;;;;-0.88;100.00;100878.34;5084159;28;20541;-76
2024/01/16 02:01:42;;;;;;;20.02;6.10;;;;;;;-0.89;100.00;100878.28;5086164;28;20056;-76
2024/01/16 02:04:08;;;;;;;20.20;5.70;;;;;;;-0.89;100.00;100884.38;5073415;28;20497;-76
2024/01/16 02:06:34;;;;;;;20.67;5.63;;;;;;;-0.86;100.00;100883.63;5079291;28;20028;-76
2024/01/16 02:08:59;;;;;;;20.65;5.43;;;;;;;-0.85;100.00;100882.81;5086054;28;20028;-76
2024/01/16 02:11:25;;;;;;;18.95;5.10;;;;;;;-0.85;100.00;100887.13;5084290;28;20034;-76
2024/01/16 02:13:50;;;;;;;19.55;4.90;;;;;;;-0.88;100.00;100883.53;5083670;28;20124;-76
2024/01/16 02:16:23;;;;;;;18.55;4.68;;;;;;;-0.91;100.00;100882.50;5084527;28;20035;-77
2024/01/16 02:18:49;;;;;;;20.73;5.25;;;;;;;-0.88;100.00;100878.34;5084471;28;20020;-77
2024/01/16 02:21:27;;;;;;;19.52;5.40;;;;;;;-0.89;100.00;100880.88;5085574;28;20039;-76
2024/01/16 02:23:53;;;;;;;19.70;5.55;;;;;;;-0.90;100.00;100874.78;5085351;28;20032;-77
2024/01/16 02:26:19;;;;;;;19.10;5.50;;;;;;;-0.89;100.00;100868.81;5085168;28;20490;-78
2024/01/16 02:28:44;;;;;;;17.95;5.40;;;;;;;-0.91;100.00;100878.19;5084167;28;20063;-77
2024/01/16 02:31:10;;;;;;;20.05;5.57;;;;;;;-0.96;100.00;100886.56;5086641;28;20024;-76
2024/01/16 02:33:35;;;;;;;18.55;5.25;;;;;;;-0.95;100.00;100888.34;5081794;28;20066;-77
2024/01/16 02:36:00;;;;;;;18.77;5.65;;;;;;;-0.97;100.00;100889.97;5085878;28;20055;-76
2024/01/16 02:38:26;;;;;;;19.70;5.45;;;;;;;-0.94;100.00;100901.41;5083290;28;20032;-76
2024/01/16 02:40:51;;;;;;;20.02;5.90;;;;;;;-0.92;100.00;100894.59;5083465;28;20066;-86
2024/01/16 02:43:17;;;;;;;19.70;6.50;;;;;;;-0.94;100.00;100892.72;5085285;28;20027;-85
2024/01/16 02:45:42;;;;;;;19.55;6.07;;;;;;;-0.92;100.00;100881.63;5083443;28;20060;-83
2024/01/16 02:48:08;;;;;;;20.63;6.47;;;;;;;-0.91;100.00;100888.56;5086423;28;20103;-86
2024/01/16 02:50:33;;;;;;;19.85;6.15;;;;;;;-0.91;100.00;100875.59;5078870;28;20066;-80
2024/01/16 02:52:59;;;;;;;21.85;6.13;;;;;;;-0.89;100.00;100883.47;5085427;28;20428;-85
2024/01/16 02:55:24;;;;;;;19.92;5.65;;;;;;;-0.90;100.00;100889.50;5083944;28;20028;-86
2024/01/16 02:57:50;;;;;;;20.25;5.13;;;;;;;-0.86;100.00;100896.59;5066278;28;20025;-86
2024/01/16 03:00:15;;;;;;;18.90;4.80;;;;;;;-0.91;100.00;100890.28;5085012;28;20383;-86
2024/01/16 03:02:41;;;;;;;19.42;5.05;;;;;;;-0.85;100.00;100893.19;5082481;28;20073;-86
2024/01/16 03:05:06;;;;;;;20.70;5.00;;;;;;;-0.84;100.00;100895.00;5086218;28;20031;-85
2024/01/16 03:07:32;;;;;;;21.95;5.35;;;;;;;-0.87;100.00;100889.66;5081286;28;20031;-85
2024/01/16 03:09:57;;;;;;;20.60;5.07;;;;;;;-0.88;100.00;100887.84;5085130;28;20094;-85
2024/01/16 03:12:23;;;;;;;18.30;4.93;;;;;;;-0.80;100.00;100883.03;5084075;28;20036;-85
2024/01/16 03:14:48;;;;;;;20.50;5.10;;;;;;;-0.92;100.00;100880.72;5083523;28;20027;-84
2024/01/16 03:17:14;;;;;;;19.42;5.00;;;;;;;-0.91;100.00;100885.97;5085158;28;20063;-77
2024/01/16 03:19:39;;;;;;;20.88;5.90;;;;;;;-0.92;100.00;100886.81;5082081;28;20025;-76
2024/01/16 03:22:05;;;;;;;20.52;5.18;;;;;;;-0.92;100.00;100883.31;5085180;28;20109;-76
2024/01/16 03:24:31;;;;;;;18.15;4.50;;;;;;;-0.96;100.00;100883.97;5082240;28;20265;-76
2024/01/16 03:26:56;;;;;;;19.35;4.80;;;;;;;-0.98;100.00;100886.47;5084244;28;20029;-76
2024/01/16 03:29:21;;;;;;;19.35;4.60;;;;;;;-1.03;100.00;100890.56;5083221;28;20133;-76
2024/01/16 03:31:47;;;;;;;20.00;4.88;;;;;;;-1.05;100.00;100894.75;5082865;28;20099;-76
2024/01/16 03:34:13;;;;;;;17.90;5.00;;;;;;;-1.13;100.00;100890.91;5084357;28;20056;-76
2024/01/16 03:36:38;;;;;;;20.65;5.10;;;;;;;-1.18;100.00;100880.28;5080240;28;20060;-76
2024/01/16 03:39:04;;;;;;;20.45;5.50;;;;;;;-1.21;100.00;100885.28;5085048;28;20127;-76
2024/01/16 03:41:29;;;;;;;20.02;5.57;;;;;;;-1.21;100.00;100874.91;5081950;28;20165;-76
2024/01/16 03:43:57;;;;;;;20.27;5.90;;;;;;;-1.19;100.00;100870.69;5083414;28;20036;-76
2024/01/16 03:46:23;;;;;;;19.67;6.00;;;;;;;-1.22;100.00;100870.53;5083042;28;20060;-76
2024/01/16 03:48:48;;;;;;;20.83;6.70;;;;;;;-1.24;100.00;100873.06;5081231;28;20559;-76
2024/01/16 03:51:19;;;;;;;21.33;7.25;;;;;;;-1.25;100.00;100862.59;5084008;28;20073;-76
2024/01/16 03:53:44;;;;;;;24.13;8.60;;;;;;;-1.19;100.00;100868.09;5082008;28;20031;-76
2024/01/16 03:56:09;;;;;;;24.50;8.18;;;;;;;-1.19;100.00;100865.50;5084586;28;20111;-76
2024/01/16 03:58:35;;;;;;;25.58;10.88;;;;;;;-1.24;100.00;100873.06;5081057;28;20028;-76
2024/01/16 04:01:00;;;;;;;26.13;11.68;;;;;;;-1.29;100.00;100866.72;5084151;28;20382;-75
2024/01/16 04:03:26;;;;;;;29.45;13.95;;;;;;;-1.31;100.00;100862.25;5080687;28;20047;-77
2024/01/16 04:05:51;;;;;;;31.13;15.82;;;;;;;-1.35;100.00;100868.13;5082658;28;20049;-82
2024/01/16 04:08:16;;;;;;;28.75;16.08;;;;;;;-1.39;100.00;100856.69;5081921;28;20028;-77
2024/01/16 04:10:42;;;;;;;29.38;16.63;;;;;;;-1.42;100.00;100851.34;5081300;28;20037;-76
2024/01/16 04:13:07;;;;;;;31.30;17.30;;;;;;;-1.47;100.00;100856.28;5083198;28;20031;-76
2024/01/16 04:15:33;;;;;;;32.85;17.88;;;;;;;-1.45;100.00;100848.59;5081356;28;20028;-80
2024/01/16 04:17:59;;;;;;;30.88;17.65;;;;;;;-1.43;100.00;100853.06;5083602;28;20033;-76
2024/01/16 04:20:25;;;;;;;31.05;18.00;;;;;;;-1.48;100.00;100849.31;5082598;28;20145;-78
2024/01/16 04:22:50;;;;;;;32.47;17.67;;;;;;;-1.49;100.00;100842.31;5082308;28;20070;-78
2024/01/16 04:25:15;;;;;;;32.90;18.50;;;;;;;-1.54;100.00;100841.22;5083725;28;20498;-79
2024/01/16 04:27:41;;;;;;;33.75;18.38;;;;;;;-1.58;100.00;100831.47;5079961;28;20078;-78
2024/01/16 04:30:07;;;;;;;32.60;18.55;;;;;;;-1.61;100.00;100839.09;5084264;28;20052;-76
2024/01/16 04:32:32;;;;;;;33.95;18.77;;;;;;;-1.62;100.00;100833.00;5080992;28;20475;-76
2024/01/16 04:34:58;;;;;;;33.42;19.08;;;;;;;-1.63;100.00;100838.09;5065465;28;20033;-77
2024/01/16 04:37:23;;;;;;;32.90;19.63;;;;;;;-1.66;100.00;100832.75;5082275;28;20126;-77
2024/01/16 04:39:49;;;;;;;32.03;19.33;;;;;;;-1.70;100.00;100834.31;5082317;28;20337;-80
2024/01/16 04:42:17;;;;;;;35.92;20.17;;;;;;;-1.70;100.00;100830.81;5084174;28;20111;-83
2024/01/16 04:44:42;;;;;;;35.50;20.30;;;;;;;-1.76;100.00;100834.88;5081369;28;20024;-78
2024/01/16 04:47:08;;;;;;;35.10;19.98;;;;;;;-1.79;100.00;100828.59;5084317;28;20494;-80
2024/01/16 04:49:33;;;;;;;34.50;20.30;;;;;;;-1.81;100.00;100828.53;5081058;28;20029;-76
2024/01/16 04:51:58;;;;;;;33.03;20.13;;;;;;;-1.82;100.00;100831.97;5083552;28;20036;-81
2024/01/16 04:54:24;;;;;;;33.92;20.00;;;;;;;-1.88;100.00;100836.78;5082044;28;20032;-85
2024/01/16 04:56:49;;;;;;;35.78;20.63;;;;;;;-1.85;100.00;100839.56;5080774;28;20107;-78
2024/01/16 04:59:14;;;;;;;35.38;20.67;;;;;;;-1.84;100.00;100846.50;5083526;28;20110;-84
2024/01/16 05:01:40;;;;;;;34.92;20.48;;;;;;;-1.84;100.00;100840.44;5080632;28;20086;-79
2024/01/16 05:04:07;;;;;;;33.13;19.90;;;;;;;-1.87;100.00;100841.16;5083761;28;20131;-82
2024/01/16 05:06:33;;;;;;;33.28;20.23;;;;;;;-1.90;100.00;100830.63;5080968;28;20098;-77
2024/01/16 05:08:58;;;;;;;33.83;20.23;;;;;;;-1.92;100.00;100832.25;5083160;28;20467;-79
2024/01/16 05:11:24;;;;;;;33.42;20.10;;;;;;;-1.92;100.00;100834.84;5081960;28;20024;-77
2024/01/16 05:13:49;;;;;;;33.60;19.95;;;;;;;-1.95;100.00;100837.28;5080317;28;20093;-77
2024/01/16 05:16:14;;;;;;;32.65;19.70;;;;;;;-1.94;100.00;100823.50;5083568;28;20081;-83
2024/01/16 05:18:43;;;;;;;33.97;19.77;;;;;;;-1.95;100.00;100821.72;5080544;28;20028;-76
2024/01/16 05:21:08;;;;;;;31.60;19.05;;;;;;;-2.00;100.00;100824.06;5078868;28;20036;-78
2024/01/16 05:23:34;;;;;;;34.10;20.15;;;;;;;-2.01;100.00;100821.38;5087440;28;20024;-77
2024/01/16 05:25:59;;;;;;;33.22;20.17;;;;;;;-2.06;100.00;100813.34;5084553;28;20085;-78
2024/01/16 05:28:24;;;;;;;34.63;19.08;;;;;;;-2.01;100.00;100819.69;5085107;28;20043;-84
2024/01/16 05:30:50;;;;;;;32.83;19.23;;;;;;;-2.04;100.00;100816.03;5086313;28;20474;-85
2024/01/16 05:33:15;;;;;;;35.53;19.70;;;;;;;-2.09;100.00;100807.13;5083643;28;20028;-84
2024/01/16 05:35:41;;;;;;;32.47;18.98;;;;;;;-2.08;100.00;100814.06;5086234;28;20024;-84
2024/01/16 05:38:06;;;;;;;30.58;18.73;;;;;;;-2.06;100.00;100813.34;5084055;28;20035;-77
2024/01/16 05:40:32;;;;;;;31.40;17.90;;;;;;;-2.07;100.00;100802.91;5086560;28;20477;-77
2024/01/16 05:42:57;;;;;;;35.22;18.90;;;;;;;-2.14;100.00;100809.44;5084691;28;20056;-76
2024/01/16 05:45:22;;;;;;;29.90;17.35;;;;;;;-2.12;100.00;100808.72;5085312;28;20029;-77
2024/01/16 05:47:48;;;;;;;31.10;17.35;;;;;;;-2.18;100.00;100799.75;5085933;28;20152;-76
2024/01/16 05:50:16;;;;;;;33.35;16.75;;;;;;;-2.14;100.00;100801.69;5084018;28;20107;-77
2024/01/16 05:52:42;;;;;;;31.33;16.35;;;;;;;-2.16;100.00;100805.88;5086722;28;20040;-77
2024/01/16 05:55:07;;;;;;;29.52;15.40;;;;;;;-2.19;100.00;100804.03;5082451;28;20058;-76
2024/01/16 05:57:33;;;;;;;29.52;15.50;;;;;;;-2.21;100.00;100802.16;5085631;28;20063;-76
2024/01/16 05:59:59;;;;;;;28.35;14.93;;;;;;;-2.21;100.00;100803.06;5084258;28;20072;-76
2024/01/16 06:02:24;;;;;;;26.92;14.73;;;;;;;-2.22;100.00;100798.66;5084758;28;20041;-76
2024/01/16 06:04:50;;;;;;;27.48;13.75;;;;;;;-2.25;100.00;100792.44;5085599;28;20479;-76
2024/01/16 06:07:16;;;;;;;26.58;14.18;;;;;;;-2.30;100.00;100794.75;5082608;28;20540;-76
2024/01/16 06:09:41;;;;;;;27.55;14.13;;;;;;;-2.30;100.00;100794.75;5086412;28;20032;-76
2024/01/16 06:12:07;;;;;;;26.13;13.35;;;;;;;-2.24;100.00;100795.13;5083307;28;20035;-76
2024/01/16 06:14:33;;;;;;;27.05;14.02;;;;;;;-2.25;100.00;100793.31;5086116;28;20059;-76
2024/01/16 06:16:59;;;;;;;26.70;13.32;;;;;;;-2.23;100.00;100791.69;5083898;28;20024;-76
2024/01/16 06:19:25;;;;;;;28.75;13.55;;;;;;;-2.22;100.00;100790.91;5085119;28;20070;-76
2024/01/16 06:21:50;;;;;;;25.42;12.80;;;;;;;-2.28;100.00;100783.69;5084951;28;20039;-76
2024/01/16 06:24:15;;;;;;;27.08;13.05;;;;;;;-2.26;100.00;100788.94;5083467;28;20024;-76
2024/01/16 06:26:42;;;;;;;26.75;13.38;;;;;;;-2.29;100.00;100793.97;5086354;28;20452;-76
2024/01/16 06:29:07;;;;;;;25.90;12.20;;;;;;;-2.33;100.00;100781.66;5082781;28;20036;-76
2024/01/16 06:31:33;;;;;;;26.77;12.25;;;;;;;-2.31;100.00;100793.88;5085399;28;20032;-76
2024/01/16 06:33:58;;;;;;;24.13;11.75;;;;;;;-2.25;100.00;100789.84;5083901;28;20099;-76
2024/01/16 06:36:24;;;;;;;25.92;11.50;;;;;;;-2.31;100.00;100791.28;5084151;28;20039;-76
2024/01/16 06:38:49;;;;;;;25.15;11.10;;;;;;;-2.33;100.00;100786.81;5085046;28;20028;-76
2024/01/16 06:41:14;;;;;;;23.67;10.95;;;;;;;-2.38;100.00;100791.75;5082970;28;20043;-76
2024/01/16 06:43:40;;;;;;;23.90;10.70;;;;;;;-2.37;100.00;100790.97;5084722;28;20111;-76
2024/01/16 06:46:05;;;;;;;22.50;10.18;;;;;;;-2.38;100.00;100790.88;5082719;28;20028;-76
2024/01/16 06:48:30;;;;;;;23.67;10.57;;;;;;;-2.43;100.00;100795.81;5084876;28;20035;-76
2024/01/16 06:50:56;;;;;;;23.75;10.10;;;;;;;-2.43;100.00;100800.06;5083769;28;20043;-77
2024/01/16 06:53:22;;;;;;;23.67;9.75;;;;;;;-2.42;100.00;100796.69;5084126;28;20025;-77
2024/01/16 06:55:48;;;;;;;24.48;9.73;;;;;;;-2.44;100.00;100794.00;5085396;28;20051;-81
2024/01/16 06:58:14;;;;;;;24.08;9.90;;;;;;;-2.42;100.00;100794.97;5082833;28;20036;-80
2024/01/16 07:00:41;;;;;;;24.05;9.95;;;;;;;-2.40;100.00;100795.97;5084965;28;20521;-76
2024/01/16 07:03:07;;;;;;;23.17;9.40;;;;;;;-2.41;100.00;100803.66;5078139;28;20552;-76
2024/01/16 07:05:32;;;;;;;23.65;9.30;;;;;;;-2.37;100.00;100801.31;5085273;28;20066;-79
2024/01/16 07:07:58;;;;;;;24.10;9.50;;;;;;;-2.41;100.00;100794.16;5083880;28;20052;-83
2024/01/16 07:10:24;;;;;;;23.95;8.60;;;;;;;-2.42;100.00;100802.75;5084220;28;20161;-83
2024/01/16 07:12:51;;;;;;;23.00;9.32;;;;;;;-2.42;100.00;100814.81;5082968;28;20487;-81
2024/01/16 07:15:17;;;;;;;23.15;8.65;;;;;;;-2.42;100.00;100810.50;5083008;28;20073;-82
2024/01/16 07:17:42;;;;;;;22.30;9.02;;;;;;;-2.40;100.00;100811.50;5085708;28;20116;-82
2024/01/16 07:20:08;;;;;;;22.85;9.20;;;;;;;-2.42;100.00;100809.63;5082228;28;20028;-78
2024/01/16 07:22:34;;;;;;;23.20;9.20;;;;;;;-2.42;100.00;100813.09;5085293;28;20032;-80
2024/01/16 07:25:00;;;;;;;22.70;9.27;;;;;;;-2.42;100.00;100822.56;5082906;28;20051;-83
2024/01/16 07:27:25;;;;;;;21.30;8.93;;;;;;;-2.43;100.00;100819.09;5084187;28;20463;-79
2024/01/16 07:29:50;;;;;;;21.83;8.38;;;;;;;-2.44;100.00;100813.84;5083920;28;20040;-78
2024/01/16 07:32:16;;;;;;;22.52;8.55;;;;;;;-2.44;100.00;100813.84;5082223;28;20031;-78
2024/01/16 07:34:41;;;;;;;23.10;8.93;;;;;;;-2.47;100.00;100815.44;5085276;28;20107;-78
2024/01/16 07:37:07;;;;;;;22.05;8.60;;;;;;;-2.41;100.00;100814.00;5081340;28;20020;-78
2024/01/16 07:39:32;;;;;;;21.75;8.68;;;;;;;-2.42;100.00;100820.88;5084190;28;20067;-78
2024/01/16 07:41:57;;;;;;;22.95;8.88;;;;;;;-2.42;100.00;100807.91;5081308;28;20479;-78
2024/01/16 07:44:23;;;;;;;22.13;8.63;;;;;;;-2.40;100.00;100816.69;5082314;28;20064;-78
2024/01/16 07:46:48;;;;;;;22.80;8.57;;;;;;;-2.41;100.00;100804.53;5083891;28;20081;-78
2024/01/16 07:49:16;;;;;;;22.90;8.48;;;;;;;-2.36;100.00;100817.72;5073269;28;20056;-78
2024/01/16 07:51:41;;;;;;;20.90;7.80;;;;;;;-2.33;100.00;100824.00;5083174;28;20038;-77
2024/01/16 07:54:09;;;;;;;23.35;8.63;;;;;;;-2.34;100.00;100822.19;5076255;28;20040;-77
2024/01/16 07:56:37;;;;;;;21.17;8.27;;;;;;;-2.31;100.00;100826.66;5073682;28;20423;-77
2024/01/16 07:59:03;;;;;;;22.48;8.45;;;;;;;-2.33;100.00;100833.44;5075636;28;20449;-77
2024/01/16 08:01:28;;;;;;;23.90;8.70;;;;;;;-2.36;100.00;100841.94;5075651;28;20107;-77
2024/01/16 08:03:56;;;;;;;23.05;8.35;;;;;;;-2.35;100.00;100845.41;5076968;28;20487;-77
2024/01/16 08:06:22;;;;;;;22.10;8.23;;;;;;;-2.35;100.00;100835.94;5076253;28;20120;-77
2024/01/16 08:08:48;;;;;;;21.50;8.20;;;;;;;-2.32;100.00;100846.47;5075857;28;20442;-78
2024/01/16 08:11:14;;;;;;;21.77;7.97;;;;;;;-2.31;100.00;100844.78;5075720;28;20051;-77
2024/01/16 08:13:39;;;;;;;21.35;7.80;;;;;;;-2.28;100.00;100842.38;5076124;28;20052;-78
2024/01/16 08:16:05;;;;;;;21.70;8.40;;;;;;;-2.28;100.00;100835.47;5077219;28;20055;-77
2024/01/16 08:18:33;;;;;;;20.73;8.00;;;;;;;-2.24;100.00;100833.06;5076104;28;20024;-79
2024/01/16 08:20:59;;;;;;;20.92;8.20;;;;;;;-2.23;100.00;100833.13;5076820;28;20025;-77
2024/01/16 08:23:24;;;;;;;21.25;8.10;;;;;;;-2.25;100.00;100832.19;5078883;28;20040;-77
2024/01/16 08:25:51;;;;;;;21.95;8.45;;;;;;;-2.21;100.00;100833.22;5081114;28;20032;-77
2024/01/16 08:28:19;;;;;;;22.23;8.05;;;;;;;-2.21;100.00;100834.13;5081880;28;20025;-77
2024/01/16 08:30:45;;;;;;;23.42;8.10;;;;;;;-2.19;100.00;100840.28;5081874;28;20030;-77
2024/01/16 08:33:11;;;;;;;21.45;8.13;;;;;;;-2.20;100.00;100841.13;5081299;28;20103;-78
2024/01/16 08:35:37;;;;;;;21.50;7.97;;;;;;;-2.19;100.00;100849.75;5084205;28;20036;-79
2024/01/16 08:38:02;;;;;;;20.92;7.90;;;;;;;-2.14;100.00;100844.03;5080632;28;20021;-78
2024/01/16 08:40:28;;;;;;;21.65;8.20;;;;;;;-2.15;100.00;100850.00;5083832;28;20089;-77
2024/01/16 08:42:54;;;;;;;21.35;7.65;;;;;;;-2.15;100.00;100846.53;5081738;28;20036;-77
2024/01/16 08:45:23;;;;;;;21.20;8.13;;;;;;;-2.13;100.00;100848.38;5082527;28;20036;-77
2024/01/16 08:47:49;;;;;;;22.50;8.23;;;;;;;-2.09;100.00;100846.00;5081537;28;20032;-77
2024/01/16 08:50:15;;;;;;;21.00;7.78;;;;;;;-2.09;100.00;100843.41;5080314;28;20040;-77
2024/01/16 08:52:40;;;;;;;20.90;8.15;;;;;;;-2.12;100.00;100847.59;5083768;28;20051;-77
2024/01/16 08:55:06;;;;;;;21.40;7.95;;;;;;;-2.09;100.00;100839.09;5083011;28;20025;-80
2024/01/16 08:57:31;;;;;;;21.15;8.23;;;;;;;-2.03;100.00;100848.91;5069960;28;20455;-79
2024/01/16 08:59:57;;;;;;;20.75;7.68;;;;;;;-2.03;100.00;100843.72;5085572;28;20066;-80
2024/01/16 09:02:24;;;;;;;22.08;7.90;;;;;;;-2.01;100.00;100845.59;5086354;28;20055;-80
2024/01/16 09:04:50;;;;;;;21.90;7.60;;;;;;;-1.98;100.00;100844.84;5085070;28;20074;-79
2024/01/16 09:07:16;;;;;;;21.92;8.35;;;;;;;-1.97;100.00;100838.88;5085619;28;20032;-79
2024/01/16 09:09:42;;;;;;;20.17;7.57;;;;;;;-1.88;100.00;100839.38;5087611;28;20375;-82
2024/01/16 09:12:09;;;;;;;21.23;7.10;;;;;;;-1.86;100.00;100842.06;5084232;28;20070;-80
2024/01/16 09:14:34;;;;;;;21.08;7.38;;;;;;;-1.80;100.00;100845.88;5079177;28;20025;-80
2024/01/16 09:16:59;;;;;;;19.15;7.15;;;;;;;-1.80;100.00;100832.91;5087069;28;20463;-80
2024/01/16 09:19:25;;;;;;;21.25;7.30;;;;;;;-1.78;100.00;100838.19;5085146;28;20077;-80
2024/01/16 09:21:50;;;;;;;20.80;7.22;;;;;;;-1.77;100.00;100838.25;5085779;28;20032;-80
2024/01/16 09:24:16;;;;;;;21.58;7.28;;;;;;;-1.71;100.00;100834.22;5086337;28;20543;-80
2024/01/16 09:26:41;;;;;;;21.05;7.63;;;;;;;-1.70;100.00;100829.13;5084272;28;20556;-82
2024/01/16 09:29:09;;;;;;;20.27;7.20;;;;;;;-1.62;100.00;100832.13;5087538;28;20031;-82
2024/01/16 09:31:35;;;;;;;20.35;6.97;;;;;;;-1.57;100.00;100830.69;5079952;28;20032;-81
2024/01/16 09:34:01;;;;;;;22.38;7.10;;;;;;;-1.52;100.00;100829.19;5086952;28;20487;-78
2024/01/16 09:36:26;;;;;;;21.95;7.00;;;;;;;-1.47;100.00;100821.66;5085152;28;20081;-78
2024/01/16 09:38:51;;;;;;;20.52;6.88;;;;;;;-1.33;100.00;100819.81;5085602;28;20111;-79
2024/01/16 09:41:17;;;;;;;22.63;6.95;;;;;;;-1.21;100.00;100817.81;5086066;28;20157;-82
2024/01/16 09:43:42;;;;;;;20.52;7.10;;;;;;;-1.15;100.00;100822.44;5082851;28;20081;-79
2024/01/16 09:46:10;;;;;;;19.60;7.00;;;;;;;-1.10;100.00;100824.47;5085877;28;20081;-78
2024/01/16 09:48:36;;;;;;;20.02;7.22;;;;;;;-1.04;100.00;100823.00;5078767;28;20032;-77
2024/01/16 09:51:01;;;;;;;20.63;7.07;;;;;;;-1.02;100.00;100827.47;5086966;28;20032;-80
2024/01/16 09:53:26;;;;;;;18.98;6.82;;;;;;;-0.97;100.00;100825.09;5084481;28;20024;-78
2024/01/16 09:55:55;;;;;;;20.95;7.30;;;;;;;-0.99;100.00;100824.13;5085732;28;20115;-80
2024/01/16 09:58:21;;;;;;;20.05;7.03;;;;;;;-0.91;100.00;100817.63;5085161;28;20024;-80
2024/01/16 10:00:46;;;;;;;19.33;6.80;;;;;;;-0.68;100.00;100825.66;5084290;28;20082;-78
2024/01/16 10:03:13;;;;;;;21.58;6.53;;;;;;;-0.53;100.00;100805.63;5086421;28;20064;-79
2024/01/16 10:05:43;;;;;;;20.33;7.00;;;;;;;-0.50;100.00;100810.97;5082511;28;20455;-78
2024/01/16 10:08:08;;;;;;;21.13;7.28;;;;;;;-0.50;100.00;100808.38;5086629;28;20111;-79
2024/01/16 10:10:34;;;;;;;19.63;6.75;;;;;;;-0.53;100.00;100803.03;5079284;28;20104;-77
2024/01/16 10:13:00;;;;;;;21.05;7.43;;;;;;;-0.38;100.00;100806.38;5068129;28;20135;-77
2024/01/16 10:15:25;;;;;;;19.73;6.65;;;;;;;0.13;100.00;100798.38;5083020;28;20032;-82
2024/01/16 10:17:52;;;;;;;19.70;6.57;;;;;;;0.46;100.00;100805.88;5083648;28;20510;-77
2024/01/16 10:20:32;;;;;;;20.50;6.63;;;;;;;0.76;100.00;100797.66;5085233;28;20036;-78
2024/01/16 10:22:58;;;;;;;20.65;6.97;;;;;;;1.28;100.00;100798.06;5085343;28;20032;-78
2024/01/16 10:25:23;;;;;;;20.00;6.38;;;;;;;1.57;100.00;100786.22;5084325;28;20028;-78
2024/01/16 10:27:49;;;;;;;19.90;6.70;;;;;;;1.74;100.00;100785.19;5084532;28;20077;-78
2024/01/16 10:30:14;;;;;;;19.27;6.57;;;;;;;1.98;100.00;100779.16;5085426;28;20067;-78
2024/01/16 10:32:41;;;;;;;18.85;6.35;;;;;;;2.15;100.00;100777.16;5081728;28;20546;-78
2024/01/16 10:35:14;;;;;;;18.98;6.47;;;;;;;2.36;100.00;100777.09;5086383;28;20024;-78
2024/01/16 10:37:52;;;;;;;19.35;6.15;;;;;;;2.32;100.00;100767.38;5079338;28;20387;-78
2024/01/16 10:40:24;;;;;;;18.83;5.95;;;;;;;2.57;100.00;100765.63;5085161;28;20035;-78
2024/01/16 10:43:06;;;;;;;19.02;6.10;;;;;;;2.95;100.00;100763.47;5084060;28;20037;-78
2024/01/16 10:45:33;;;;;;;18.85;6.20;;;;;;;3.37;100.00;100762.25;5082912;28;20021;-78
2024/01/16 10:48:03;;;;;;;20.50;6.05;;;;;;;3.63;100.00;100765.69;5085297;28;20032;-78
2024/01/16 10:50:29;;;;;;;19.13;5.85;;;;;;;3.69;100.00;100770.22;5065452;28;20040;-78
2024/01/16 10:52:54;;;;;;;19.23;5.93;;;;;;;4.04;100.00;100770.41;5084454;28;20035;-78
2024/01/16 10:55:22;;;;;;;19.13;5.57;;;;;;;4.22;100.00;100767.44;5084530;28;20043;-78
2024/01/16 10:57:51;;;;;;;19.17;5.78;;;;;;;4.50;100.00;100767.38;5083545;28;20111;-78
2024/01/16 11:00:21;;;;;;;19.38;5.60;;;;;;;4.96;100.00;100754.63;5084892;28;20053;-77